createdAt,value
2019-01-31T00:00:54.462Z,98621.09
2019-01-31T00:04:55.369Z,98623.80
2019-01-31T00:08:46.447Z,98619.00
2019-01-31T00:12:57.854Z,98609.84
2019-01-31T00:16:44.062Z,98609.84
2019-01-31T00:20:22.301Z,98624.94
2019-01-31T00:23:57.865Z,98621.63
2019-01-31T00:27:29.749Z,98624.13
2019-01-31T00:31:14.750Z,98633.06
2019-01-31T00:34:31.677Z,98637.46
2019-01-31T00:37:12.938Z,98637.89
2019-01-31T00:41:03.301Z,98639.84
2019-01-31T00:44:15.697Z,98636.92
2019-01-31T00:47:15.683Z,98642.14
2019-01-31T00:50:17.410Z,98637.37
2019-01-31T00:53:44.725Z,98643.09
2019-01-31T00:56:51.258Z,98644.74
2019-01-31T01:00:18.349Z,98641.22
2019-01-31T01:03:57.713Z,98636.82
2019-01-31T01:07:00.437Z,98648.82
2019-01-31T01:10:22.300Z,98652.77
2019-01-31T01:13:38.776Z,98657.89
2019-01-31T01:16:52.639Z,98655.70
2019-01-31T01:20:13.474Z,98664.23
2019-01-31T01:23:42.730Z,98664.23
2019-01-31T01:27:09.280Z,98661.21
2019-01-31T01:30:56.784Z,98668.83
2019-01-31T01:34:14.617Z,98670.08
2019-01-31T01:37:52.377Z,98664.95
2019-01-31T01:41:42.778Z,98664.95
2019-01-31T01:45:00.673Z,98677.35
2019-01-31T01:48:04.777Z,98677.47
2019-01-31T01:51:33.718Z,98686.42
2019-01-31T01:55:16.638Z,98685.89
2019-01-31T01:58:35.758Z,98682.66
2019-01-31T02:01:25.618Z,98682.66
2019-01-31T02:04:46.776Z,98682.13
2019-01-31T02:07:59.432Z,98682.13
2019-01-31T02:11:35.312Z,98680.98
2019-01-31T02:14:30.716Z,98681.11
2019-01-31T02:17:42.289Z,98675.59
2019-01-31T02:21:34.405Z,98677.77
2019-01-31T02:24:59.274Z,98678.71
2019-01-31T02:28:39.314Z,98674.63
2019-01-31T02:32:06.780Z,98672.97
2019-01-31T02:35:01.612Z,98669.21
2019-01-31T02:38:26.310Z,98661.38
2019-01-31T02:41:55.322Z,98661.38
2019-01-31T02:45:36.506Z,98674.55
2019-01-31T02:48:54.320Z,98672.48
2019-01-31T02:52:59.805Z,98671.21
2019-01-31T02:57:02.664Z,98677.27
2019-01-31T03:01:16.015Z,98678.81
2019-01-31T03:04:48.324Z,98686.17
2019-01-31T03:08:22.313Z,98684.93
2019-01-31T03:11:24.316Z,98679.81
2019-01-31T03:14:47.887Z,98682.61
2019-01-31T03:18:43.785Z,98684.59
2019-01-31T03:22:46.766Z,98689.59
2019-01-31T03:26:12.436Z,98691.78
2019-01-31T03:29:51.485Z,98689.59
2019-01-31T03:32:51.061Z,98689.59
2019-01-31T03:36:39.821Z,98695.42
2019-01-31T03:40:29.319Z,98691.17
2019-01-31T03:43:56.763Z,98696.92
2019-01-31T03:47:16.326Z,98692.23
2019-01-31T03:50:51.773Z,98692.42
2019-01-31T03:54:14.645Z,98699.60
2019-01-31T03:58:10.390Z,98697.95
2019-01-31T04:02:13.314Z,98697.95
2019-01-31T04:05:42.300Z,98700.38
2019-01-31T04:08:13.810Z,98703.55
2019-01-31T04:10:45.617Z,98703.25
2019-01-31T04:13:17.346Z,98691.70
2019-01-31T04:15:49.380Z,98691.70
2019-01-31T04:18:21.062Z,98706.06
2019-01-31T04:20:52.753Z,98704.03
2019-01-31T04:23:23.449Z,98698.16
2019-01-31T04:25:55.314Z,98701.17
2019-01-31T04:28:26.877Z,98700.48
2019-01-31T04:30:58.437Z,98704.72
2019-01-31T04:33:30.290Z,98703.80
2019-01-31T04:36:01.874Z,98709.11
2019-01-31T04:38:33.761Z,98704.83
2019-01-31T04:41:04.457Z,98708.78
2019-01-31T04:43:36.322Z,98706.93
2019-01-31T04:46:07.928Z,98708.78
2019-01-31T04:48:39.782Z,98712.23
2019-01-31T04:51:10.655Z,98712.95
2019-01-31T04:53:42.347Z,98707.42
2019-01-31T04:56:14.075Z,98707.42
2019-01-31T04:58:45.891Z,98715.96
2019-01-31T05:01:17.774Z,98717.77
2019-01-31T05:03:48.525Z,98723.48
2019-01-31T05:06:20.321Z,98726.00
2019-01-31T05:08:51.869Z,98725.70
2019-01-31T05:13:54.073Z,98728.27
2019-01-31T05:16:26.317Z,98731.91
2019-01-31T05:18:58.324Z,98734.81
2019-01-31T05:21:30.333Z,98734.28
2019-01-31T05:24:02.809Z,98737.41
2019-01-31T05:26:34.893Z,98733.67
2019-01-31T05:29:06.749Z,98740.00
2019-01-31T05:31:37.495Z,98739.28
2019-01-31T05:34:09.314Z,98739.73
2019-01-31T05:39:26.318Z,98743.27
2019-01-31T05:41:57.863Z,98745.27
2019-01-31T05:44:29.398Z,98736.91
2019-01-31T05:47:01.076Z,98736.58
2019-01-31T05:49:33.277Z,98746.98
2019-01-31T05:52:04.911Z,98740.41
2019-01-31T05:54:36.732Z,98746.72
2019-01-31T05:57:07.750Z,98745.25
2019-01-31T05:59:38.488Z,98749.23
2019-01-31T06:02:10.306Z,98743.90
2019-01-31T06:04:41.873Z,98743.67
2019-01-31T06:07:14.025Z,98746.52
2019-01-31T06:09:46.333Z,98747.50
2019-01-31T06:12:18.311Z,98748.67
2019-01-31T06:14:49.874Z,98749.13
2019-01-31T06:17:21.397Z,98750.78
2019-01-31T06:19:53.059Z,98758.59
2019-01-31T06:22:25.208Z,98755.41
2019-01-31T06:24:57.065Z,98761.42
2019-01-31T06:27:28.885Z,98766.27
2019-01-31T06:30:00.786Z,98767.42
2019-01-31T06:32:31.516Z,98768.17
2019-01-31T06:35:03.315Z,98775.16
2019-01-31T06:37:34.883Z,98779.59
2019-01-31T06:40:08.309Z,98784.39
2019-01-31T06:42:39.774Z,98781.87
2019-01-31T06:45:16.460Z,98791.75
2019-01-31T06:47:48.314Z,98791.11
2019-01-31T06:50:19.881Z,98798.94
2019-01-31T06:52:51.733Z,98795.41
2019-01-31T06:55:22.481Z,98797.80
2019-01-31T06:57:54.313Z,98792.52
2019-01-31T07:00:26.773Z,98799.06
2019-01-31T07:02:57.475Z,98803.34
2019-01-31T07:05:29.309Z,98809.00
2019-01-31T07:08:00.880Z,98807.77
2019-01-31T07:10:32.773Z,98813.52
2019-01-31T07:13:05.318Z,98813.83
2019-01-31T07:15:36.859Z,98816.98
2019-01-31T07:18:08.754Z,98813.70
2019-01-31T07:20:40.373Z,98817.34
2019-01-31T07:23:12.061Z,98817.77
2019-01-31T07:25:43.877Z,98819.77
2019-01-31T07:28:15.617Z,98822.88
2019-01-31T07:30:46.500Z,98819.48
2019-01-31T07:33:18.313Z,98824.89
2019-01-31T07:35:52.068Z,98829.05
2019-01-31T07:38:23.353Z,98832.25
2019-01-31T07:40:55.310Z,98832.25
2019-01-31T07:43:26.841Z,98832.46
2019-01-31T07:45:58.608Z,98831.17
2019-01-31T07:48:30.579Z,98822.69
2019-01-31T07:51:02.400Z,98835.45
2019-01-31T07:53:34.028Z,98835.45
2019-01-31T07:56:05.757Z,98830.28
2019-01-31T07:58:36.491Z,98828.19
2019-01-31T08:01:08.310Z,98821.30
2019-01-31T08:03:40.764Z,98826.59
2019-01-31T08:06:12.741Z,98829.11
2019-01-31T08:08:43.491Z,98819.64
2019-01-31T08:11:15.301Z,98829.17
2019-01-31T08:13:46.812Z,98828.20
2019-01-31T08:16:18.590Z,98827.94
2019-01-31T08:18:50.326Z,98830.66
2019-01-31T08:21:22.067Z,98830.66
2019-01-31T08:23:53.752Z,98828.42
2019-01-31T08:26:24.659Z,98832.18
2019-01-31T08:28:56.374Z,98842.73
2019-01-31T08:31:28.310Z,98842.73
2019-01-31T08:33:59.888Z,98837.17
2019-01-31T08:36:32.293Z,98840.09
2019-01-31T08:39:04.327Z,98842.37
2019-01-31T08:41:36.049Z,98844.12
2019-01-31T08:44:07.773Z,98839.89
2019-01-31T08:46:38.635Z,98839.99
2019-01-31T08:49:10.647Z,98835.59
2019-01-31T08:51:42.424Z,98844.75
2019-01-31T08:54:14.048Z,98844.75
2019-01-31T08:56:45.760Z,98844.66
2019-01-31T08:59:16.724Z,98844.48
2019-01-31T09:01:47.591Z,98837.78
2019-01-31T09:04:18.684Z,98834.05
2019-01-31T09:06:49.529Z,98839.88
2019-01-31T09:09:21.307Z,98836.66
2019-01-31T09:11:52.879Z,98843.83
2019-01-31T09:14:24.731Z,98848.77
2019-01-31T09:16:55.448Z,98853.02
2019-01-31T09:19:27.301Z,98849.46
2019-01-31T09:22:31.424Z,98856.22
2019-01-31T09:30:10.759Z,98859.15
2019-01-31T09:34:23.807Z,98856.96
2019-01-31T09:38:20.037Z,98861.19
2019-01-31T09:41:54.296Z,98859.20
2019-01-31T09:45:44.897Z,98862.99
2019-01-31T09:48:40.765Z,98861.88
2019-01-31T09:52:11.639Z,98860.48
2019-01-31T09:56:15.845Z,98866.80
2019-01-31T09:59:32.839Z,98866.80
2019-01-31T10:03:30.205Z,98875.75
2019-01-31T10:06:52.529Z,98885.63
2019-01-31T10:10:51.794Z,98871.67
2019-01-31T10:14:27.840Z,98874.14
2019-01-31T10:18:19.781Z,98872.86
2019-01-31T10:21:40.832Z,98874.84
2019-01-31T10:25:39.882Z,98876.10
2019-01-31T10:29:04.737Z,98868.50
2019-01-31T10:32:05.420Z,98863.38
2019-01-31T10:35:55.249Z,98868.79
2019-01-31T10:39:10.293Z,98863.39
2019-01-31T10:42:48.934Z,98861.77
2019-01-31T10:46:10.876Z,98861.31
2019-01-31T10:49:55.049Z,98859.95
2019-01-31T10:53:30.828Z,98857.18
2019-01-31T10:57:44.346Z,98843.59
2019-01-31T11:01:18.917Z,98845.71
2019-01-31T11:05:14.314Z,98843.95
2019-01-31T11:08:58.305Z,98845.45
2019-01-31T11:12:27.337Z,98839.70
2019-01-31T11:16:29.333Z,98831.34
2019-01-31T11:20:39.327Z,98833.83
2019-01-31T11:24:28.808Z,98827.20
2019-01-31T11:28:17.427Z,98826.56
2019-01-31T11:31:59.598Z,98826.94
2019-01-31T11:35:38.754Z,98813.23
2019-01-31T11:39:00.623Z,98813.23
2019-01-31T11:42:31.769Z,98817.86
2019-01-31T11:45:47.254Z,98817.86
2019-01-31T11:49:02.748Z,98813.80
2019-01-31T11:52:36.765Z,98813.61
2019-01-31T11:55:23.941Z,98819.67
2019-01-31T11:59:02.745Z,98818.63
2019-01-31T12:01:33.591Z,98814.67
2019-01-31T12:04:16.297Z,98807.07
2019-01-31T12:06:47.914Z,98807.07
2019-01-31T12:09:22.452Z,98802.90
2019-01-31T12:11:54.413Z,98806.89
2019-01-31T12:14:26.070Z,98803.01
2019-01-31T12:16:57.741Z,98805.90
2019-01-31T12:19:28.488Z,98798.61
2019-01-31T12:22:00.309Z,98802.59
2019-01-31T12:24:31.888Z,98794.88
2019-01-31T12:27:03.657Z,98790.78
2019-01-31T12:29:35.426Z,98777.61
2019-01-31T12:32:07.302Z,98777.61
2019-01-31T12:34:38.825Z,98788.41
2019-01-31T12:37:10.582Z,98795.71
2019-01-31T12:39:42.349Z,98777.01
2019-01-31T12:42:14.062Z,98777.01
2019-01-31T12:44:45.882Z,98780.59
2019-01-31T12:47:17.746Z,98778.81
2019-01-31T12:49:48.473Z,98774.42
2019-01-31T12:52:20.333Z,98774.19
2019-01-31T12:54:51.989Z,98771.59
2019-01-31T12:57:23.767Z,98764.52
2019-01-31T12:59:55.630Z,98769.67
2019-01-31T13:02:26.608Z,98763.36
2019-01-31T13:04:58.382Z,98741.98
2019-01-31T13:07:30.262Z,98741.98
2019-01-31T13:10:01.847Z,98761.09
2019-01-31T13:12:33.711Z,98759.33
2019-01-31T13:15:04.458Z,98766.97
2019-01-31T13:17:36.299Z,98758.95
2019-01-31T13:20:15.795Z,98755.49
2019-01-31T13:22:47.406Z,98757.81
2019-01-31T13:25:19.305Z,98752.89
2019-01-31T13:27:51.313Z,98749.66
2019-01-31T13:30:23.746Z,98751.09
2019-01-31T13:32:56.022Z,98753.83
2019-01-31T13:35:27.743Z,98753.34
2019-01-31T13:37:58.580Z,98752.92
2019-01-31T13:40:30.650Z,98733.63
2019-01-31T13:43:02.376Z,98742.92
2019-01-31T13:45:38.309Z,98742.92
2019-01-31T13:48:16.779Z,98749.58
2019-01-31T13:50:47.498Z,98748.52
2019-01-31T13:53:19.313Z,98748.14
2019-01-31T13:55:50.882Z,98755.24
2019-01-31T13:58:22.629Z,98750.55
2019-01-31T14:00:54.370Z,98753.66
2019-01-31T14:03:26.325Z,98753.66
2019-01-31T14:05:58.302Z,98757.09
2019-01-31T14:08:29.849Z,98754.91
2019-01-31T14:11:01.797Z,98756.17
2019-01-31T14:13:34.310Z,98760.58
2019-01-31T14:16:06.029Z,98760.45
2019-01-31T14:18:38.425Z,98757.29
2019-01-31T14:21:13.385Z,98753.11
2019-01-31T14:23:45.606Z,98753.75
2019-01-31T14:26:17.716Z,98754.05
2019-01-31T14:28:48.476Z,98754.05
2019-01-31T14:31:20.406Z,98762.71
2019-01-31T14:33:52.308Z,98760.22
2019-01-31T14:36:24.301Z,98757.48
2019-01-31T14:38:55.852Z,98761.69
2019-01-31T14:41:27.596Z,98762.82
2019-01-31T14:43:59.318Z,98761.88
2019-01-31T14:46:30.933Z,98761.88
2019-01-31T14:49:04.004Z,98753.20
2019-01-31T14:51:35.702Z,98755.52
2019-01-31T14:54:06.628Z,98755.41
2019-01-31T14:56:38.629Z,98754.66
2019-01-31T14:59:10.357Z,98738.91
2019-01-31T15:01:42.060Z,98738.91
2019-01-31T15:04:14.309Z,98760.41
2019-01-31T15:06:45.990Z,98754.56
2019-01-31T15:09:17.767Z,98752.69
2019-01-31T15:11:48.451Z,98755.44
2019-01-31T15:14:31.207Z,98758.84
2019-01-31T15:16:54.759Z,98755.47
2019-01-31T15:19:25.496Z,98753.71
2019-01-31T15:21:57.333Z,98758.55
2019-01-31T15:24:29.441Z,98752.00
2019-01-31T15:27:01.309Z,98755.58
2019-01-31T15:29:32.822Z,98755.11
2019-01-31T15:32:04.678Z,98755.38
2019-01-31T15:34:36.509Z,98747.33
2019-01-31T15:37:08.761Z,98747.33
2019-01-31T15:39:39.747Z,98758.73
2019-01-31T15:42:12.031Z,98756.38
2019-01-31T15:44:43.824Z,98757.05
2019-01-31T15:47:16.330Z,98762.41
2019-01-31T15:49:48.661Z,98758.48
2019-01-31T15:52:20.605Z,98758.84
2019-01-31T15:54:53.094Z,98751.05
2019-01-31T15:57:25.305Z,98751.05
2019-01-31T15:59:58.140Z,98755.77
2019-01-31T16:02:29.798Z,98758.61
2019-01-31T16:05:01.847Z,98750.69
2019-01-31T16:07:34.314Z,98755.00
2019-01-31T16:10:05.972Z,98754.88
2019-01-31T16:12:37.884Z,98757.39
2019-01-31T16:15:11.705Z,98756.09
2019-01-31T16:17:42.957Z,98752.92
2019-01-31T16:20:15.826Z,98750.37
2019-01-31T16:22:47.838Z,98755.87
2019-01-31T16:25:19.859Z,98756.39
2019-01-31T16:27:51.891Z,98755.45
2019-01-31T16:30:24.369Z,98759.64
2019-01-31T16:32:56.406Z,98755.05
2019-01-31T16:35:28.799Z,98750.60
2019-01-31T16:38:00.433Z,98754.89
2019-01-31T16:40:32.310Z,98746.77
2019-01-31T16:43:04.593Z,98749.70
2019-01-31T16:45:36.718Z,98746.84
2019-01-31T16:48:09.780Z,98746.84
2019-01-31T16:50:41.550Z,98751.50
2019-01-31T16:53:13.369Z,98741.77
2019-01-31T16:55:45.020Z,98741.77
2019-01-31T16:58:16.773Z,98745.94
2019-01-31T17:00:48.597Z,98746.47
2019-01-31T17:03:20.362Z,98739.32
2019-01-31T17:05:52.314Z,98739.32
2019-01-31T17:08:24.320Z,98745.27
2019-01-31T17:10:56.060Z,98749.55
2019-01-31T17:13:28.583Z,98746.02
2019-01-31T17:15:59.610Z,98727.72
2019-01-31T17:18:30.607Z,98738.17
2019-01-31T17:21:02.520Z,98729.53
2019-01-31T17:23:34.370Z,98729.53
2019-01-31T17:26:06.305Z,98735.86
2019-01-31T17:28:37.897Z,98733.41
2019-01-31T17:31:09.397Z,98729.58
2019-01-31T17:33:41.057Z,98719.80
2019-01-31T17:36:12.740Z,98719.18
2019-01-31T17:38:44.634Z,98720.14
2019-01-31T17:41:16.342Z,98712.97
2019-01-31T17:43:48.355Z,98712.97
2019-01-31T17:46:20.337Z,98708.78
2019-01-31T17:48:54.002Z,98713.08
2019-01-31T17:51:25.762Z,98707.02
2019-01-31T17:53:57.349Z,98709.99
2019-01-31T17:56:29.074Z,98710.35
2019-01-31T17:59:02.986Z,98716.75
2019-01-31T18:01:34.754Z,98714.83
2019-01-31T18:04:05.619Z,98709.33
2019-01-31T18:06:37.338Z,98714.11
2019-01-31T18:09:11.710Z,98714.11
2019-01-31T18:11:42.598Z,98715.23
2019-01-31T18:14:14.497Z,98711.45
2019-01-31T18:16:45.591Z,98711.45
2019-01-31T18:19:16.932Z,98712.07
2019-01-31T18:21:48.731Z,98710.76
2019-01-31T18:24:19.511Z,98702.42
2019-01-31T18:26:51.762Z,98694.05
2019-01-31T18:29:22.617Z,98694.05
2019-01-31T18:31:54.337Z,98695.28
2019-01-31T18:34:26.060Z,98695.28
2019-01-31T18:36:58.328Z,98696.41
2019-01-31T18:39:30.903Z,98694.37
2019-01-31T18:42:02.772Z,98694.31
2019-01-31T18:44:33.604Z,98694.61
2019-01-31T18:47:05.816Z,98685.59
2019-01-31T18:49:37.804Z,98685.59
2019-01-31T18:54:40.001Z,98694.61
2019-01-31T18:57:12.845Z,98695.48
2019-01-31T18:59:44.813Z,98691.77
2019-01-31T19:02:16.427Z,98691.14
2019-01-31T19:04:48.835Z,98692.91
2019-01-31T19:07:20.659Z,98691.58
2019-01-31T19:09:52.772Z,98676.55
2019-01-31T19:12:23.488Z,98676.55
2019-01-31T19:14:55.271Z,98696.84
2019-01-31T19:17:26.895Z,98685.27
2019-01-31T19:19:58.465Z,98694.19
2019-01-31T19:22:30.272Z,98688.27
2019-01-31T19:25:02.300Z,98695.23
2019-01-31T19:27:34.058Z,98694.08
2019-01-31T19:30:08.308Z,98697.63
2019-01-31T19:32:39.854Z,98693.14
2019-01-31T19:35:11.760Z,98693.25
2019-01-31T19:37:42.476Z,98693.98
2019-01-31T19:40:19.296Z,98698.25
2019-01-31T19:42:51.410Z,98693.87
2019-01-31T19:45:37.825Z,98692.53
2019-01-31T19:48:09.778Z,98688.55
2019-01-31T19:50:43.629Z,98684.39
2019-01-31T19:53:17.358Z,98688.66
2019-01-31T19:55:49.303Z,98685.53
2019-01-31T19:58:22.058Z,98684.69
2019-01-31T20:00:55.052Z,98681.33
2019-01-31T20:03:28.374Z,98682.70
2019-01-31T20:06:00.871Z,98680.83
2019-01-31T20:08:34.952Z,98674.27
2019-01-31T20:11:07.914Z,98680.52
2019-01-31T20:13:40.851Z,98674.98
2019-01-31T20:16:16.094Z,98675.61
2019-01-31T20:18:46.741Z,98670.50
2019-01-31T20:21:18.077Z,98665.17
2019-01-31T20:23:50.445Z,98668.20
2019-01-31T20:26:23.320Z,98668.30
2019-01-31T20:28:56.304Z,98665.08
2019-01-31T20:31:27.860Z,98667.07
2019-01-31T20:33:59.734Z,98671.73
2019-01-31T20:36:30.820Z,98658.94
2019-01-31T20:39:03.948Z,98659.75
2019-01-31T20:41:35.778Z,98652.97
2019-01-31T20:44:07.108Z,98653.78
2019-01-31T20:46:40.245Z,98650.34
2019-01-31T20:49:12.298Z,98649.70
2019-01-31T20:51:44.304Z,98649.70
2019-01-31T20:54:15.951Z,98651.06
2019-01-31T20:56:47.835Z,98651.55
2019-01-31T20:59:22.294Z,98639.48
2019-01-31T21:01:54.264Z,98639.48
2019-01-31T21:04:26.029Z,98653.98
2019-01-31T21:06:57.794Z,98653.16
2019-01-31T21:09:29.781Z,98648.48
2019-01-31T21:12:00.585Z,98645.11
2019-01-31T21:14:32.358Z,98639.48
2019-01-31T21:17:04.056Z,98639.48
2019-01-31T21:19:36.493Z,98648.32
2019-01-31T21:22:08.298Z,98645.69
2019-01-31T21:24:40.356Z,98641.14
2019-01-31T21:27:15.578Z,98636.22
2019-01-31T21:29:47.769Z,98642.20
2019-01-31T21:32:18.541Z,98635.13
2019-01-31T21:34:50.746Z,98619.35
2019-01-31T21:37:21.617Z,98619.35
2019-01-31T21:39:53.981Z,98636.16
2019-01-31T21:42:25.908Z,98636.16
2019-01-31T21:44:57.794Z,98633.32
2019-01-31T21:47:29.838Z,98630.20
2019-01-31T21:50:01.715Z,98628.09
2019-01-31T21:52:33.886Z,98630.55
2019-01-31T21:55:06.315Z,98627.17
2019-01-31T21:57:38.773Z,98622.39
2019-01-31T22:00:17.057Z,98626.98
2019-01-31T22:02:49.301Z,98617.06
2019-01-31T22:05:21.057Z,98618.94
2019-01-31T22:07:53.347Z,98617.88
2019-01-31T22:10:25.707Z,98616.94
2019-01-31T22:12:58.005Z,98616.83
2019-01-31T22:15:32.774Z,98610.29
2019-01-31T22:18:03.560Z,98605.70
2019-01-31T22:20:35.391Z,98604.16
2019-01-31T22:23:08.310Z,98604.16
2019-01-31T22:25:40.549Z,98592.48
2019-01-31T22:28:12.863Z,98593.30
2019-01-31T22:30:46.058Z,98589.97
2019-01-31T22:33:18.474Z,98589.25
2019-01-31T22:35:51.342Z,98585.49
2019-01-31T22:38:23.404Z,98577.71
2019-01-31T22:40:55.779Z,98572.61
2019-01-31T22:43:26.653Z,98573.32
2019-01-31T22:45:59.308Z,98560.43
2019-01-31T22:48:30.835Z,98560.43
2019-01-31T22:51:02.609Z,98559.69
2019-01-31T22:53:34.466Z,98555.52
2019-01-31T22:56:09.792Z,98555.52
2019-01-31T22:58:42.061Z,98555.29
2019-01-31T23:01:37.774Z,98555.29
2019-01-31T23:04:09.749Z,98552.20
2019-01-31T23:06:40.459Z,98548.64
2019-01-31T23:09:14.539Z,98549.27
2019-01-31T23:11:46.309Z,98545.74
2019-01-31T23:14:17.878Z,98545.05
2019-01-31T23:16:49.756Z,98543.89
2019-01-31T23:19:20.478Z,98538.48
2019-01-31T23:21:52.305Z,98539.62
2019-01-31T23:24:24.297Z,98533.66
2019-01-31T23:26:55.844Z,98540.86
2019-01-31T23:29:27.411Z,98536.13
2019-01-31T23:31:59.374Z,98535.34
2019-01-31T23:34:31.779Z,98540.86
2019-01-31T23:37:02.499Z,98543.12
2019-01-31T23:39:34.318Z,98542.17
2019-01-31T23:42:06.034Z,98543.41
2019-01-31T23:44:37.717Z,98539.39
2019-01-31T23:47:08.502Z,98532.22
2019-01-31T23:49:40.783Z,98533.48
2019-01-31T23:52:12.421Z,98532.25
2019-01-31T23:54:44.044Z,98521.25
2019-01-31T23:57:15.788Z,98527.08
2019-01-31T23:59:46.499Z,98534.56
